Pelagos — SZSW — position and weather

sailwx.info

Track history (hours):
 
Tides and Currents Weather Stations Pressure Air Temp Water Temp Dewpoint Dewpoint Depression Visibility Wind Speed Wind Dir Waves Ship Positions

Pelagos

Last reported at 2016-Aug-25 20:31 UTC. Time now 2016-Aug-26 19:58 UTC.
Position N 60°20' E 028°43'.

Length 249 m; draft 7.5 m.

Type: Ship. MMSI: 240335000.

Date/timePositionNaut miles runAvg speedWind from/ knotsBaromVisibWave heightAir tempDewpointWater temp
2016-Aug-25 20:31N 60°20' E 028°43'6 5.7
2016-Aug-25 19:33N 60°15' E 028°48'8 8.0
2016-Aug-25 18:33N 60°09' E 028°38'6 6.1
2016-Aug-25 17:33N 60°06' E 028°27'5 4.6
2016-Aug-25 16:33N 60°06' E 028°18'6 5.6
2016-Aug-25 15:33N 60°08' E 028°07'5 4.7
2016-Aug-25 14:33N 60°09' E 027°58'6 5.5
2016-Aug-25 13:33N 60°11' E 027°47'5 4.8
2016-Aug-25 12:33N 60°08' E 027°39'6 6.1
2016-Aug-25 11:33N 60°05' E 027°28'6 6.2
2016-Aug-25 10:33N 60°02' E 027°18'6 5.9
2016-Aug-25 09:32N 59°59' E 027°08'5 5.6
2016-Aug-25 08:33N 59°58' E 026°57'6 5.9
2016-Aug-25 07:33N 59°59' E 026°45'8 7.8
2016-Aug-25 06:34N 59°58' E 026°30'21 8.6
2016-Aug-25 04:06N 59°52' E 025°49'24 8.6
2016-Aug-25 01:18N 59°47' E 025°03'7 8.3
2016-Aug-25 00:26N 59°46' E 024°48'9 8.3
2016-Aug-24 23:21N 59°44' E 024°31'7 8.3
2016-Aug-24 22:32N 59°42' E 024°18'8 8.1
2016-Aug-24 21:33N 59°40' E 024°03'8 8.1
2016-Aug-24 20:33N 59°37' E 023°48'8 8.2
2016-Aug-24 19:33N 59°35' E 023°32'9 8.7
2016-Aug-24 18:33N 59°32' E 023°16'9 8.6
2016-Aug-24 17:33N 59°29' E 023°00'9 9.3
2016-Aug-24 16:33N 59°26' E 022°43'8 8.4
2016-Aug-24 15:33N 59°22' E 022°28'9 8.1
2016-Aug-24 14:29N 59°17' E 022°15'208 5.9
2016-Aug-23 03:32N 56°20' E 018°51'8 8.0
2016-Aug-23 02:33N 56°15' E 018°40'9 8.3
2016-Aug-23 01:26N 56°10' E 018°25'99 6.9
2016-Aug-22 11:06N 55°37' E 015°38'4 6.3
2016-Aug-22 10:32N 55°36' E 015°32'6 6.2
2016-Aug-22 09:33N 55°34' E 015°21'6 6.0
2016-Aug-22 08:30N 55°32' E 015°11'5 5.8
2016-Aug-22 07:33N 55°29' E 015°03'6 5.8
2016-Aug-22 06:33N 55°26' E 014°54'6 5.8
2016-Aug-22 05:33N 55°24' E 014°44'6 5.8
2016-Aug-22 04:33N 55°21' E 014°36'6 5.7
2016-Aug-22 03:33N 55°17' E 014°28'6 5.6
2016-Aug-22 02:33N 55°13' E 014°22'6 5.6
2016-Aug-22 01:33N 55°09' E 014°14'6 6.0
2016-Aug-22 00:33N 55°10' E 014°04'6 6.1
2016-Aug-21 23:33N 55°11' E 013°53'6 6.1
2016-Aug-21 22:33N 55°11' E 013°43'6 6.1
2016-Aug-21 21:33N 55°12' E 013°32'6 5.9
2016-Aug-21 20:33N 55°12' E 013°22'6 5.9
2016-Aug-21 19:33N 55°13' E 013°12'6 5.9
2016-Aug-21 18:33N 55°14' E 013°01'5 5.4
2016-Aug-21 17:33N 55°15' E 012°52'5 5.4
2016-Aug-21 16:33N 55°17' E 012°43'4 4.1
2016-Aug-21 15:34N 55°20' E 012°38'6 5.5
2016-Aug-21 14:33N 55°25' E 012°40'8 8.0
2016-Aug-21 13:33N 55°32' E 012°46'9 9.2
2016-Aug-21 12:33N 55°40' E 012°56'1413.7
2016-Aug-21 11:33N 55°52' E 012°44'1312.7
2016-Aug-21 10:33N 56°04' E 012°37'8 7.7
2016-Aug-21 09:33N 56°09' E 012°26'6 6.5
2016-Aug-21 08:33N 56°13' E 012°17'8 7.8
2016-Aug-21 07:33N 56°17' E 012°05'7 6.7
2016-Aug-21 06:32N 56°23' E 011°60'5 5.1
2016-Aug-21 05:33N 56°28' E 011°56'2 1.7
2016-Aug-21 04:31N 56°26' E 011°57'3 3.0
2016-Aug-21 03:33N 56°29' E 011°59'6 5.6
2016-Aug-21 02:33N 56°34' E 011°56'5 5.4
2016-Aug-21 01:32N 56°40' E 011°55'5 4.8
2016-Aug-21 00:33N 56°44' E 011°53'5 5.2
2016-Aug-20 23:33N 56°49' E 011°50'5 4.9
2016-Aug-20 22:33N 56°54' E 011°47'5 4.9
2016-Aug-20 21:32N 56°59' E 011°44'7 7.1
2016-Aug-20 20:33N 57°05' E 011°39'8 7.9
2016-Aug-20 19:33N 57°12' E 011°34'7 7.5
2016-Aug-20 18:33N 57°19' E 011°29'7 7.1
2016-Aug-20 17:33N 57°26' E 011°24'6 6.1
2016-Aug-20 16:33N 57°30' E 011°16'6 6.3
2016-Aug-20 15:33N 57°35' E 011°09'6 6.4
2016-Aug-20 14:33N 57°40' E 010°60'6 6.5
2016-Aug-20 13:33N 57°44' E 010°51'6 6.2
2016-Aug-20 12:33N 57°47' E 010°41'10 7.4
2016-Aug-20 11:12N 57°45' E 010°23'13 4.8
2016-Aug-20 08:31N 57°41' E 009°60'5 5.6
2016-Aug-20 07:33N 57°39' E 009°50'5 5.5
2016-Aug-20 06:33N 57°37' E 009°41'7 6.8
2016-Aug-20 05:33N 57°34' E 009°29'8 8.2
2016-Aug-20 04:33N 57°30' E 009°16'69 7.6
2016-Aug-19 19:32N 56°45' E 007°41'5 5.1
2016-Aug-19 18:32N 56°41' E 007°35'6 5.1
2016-Aug-19 17:25N 56°36' E 007°29'27 5.6
2016-Aug-19 12:30N 56°13' E 007°02'7 5.4
2016-Aug-19 11:09N 56°07' E 006°54'21 5.5
2016-Aug-19 07:21N 55°50' E 006°32'7 5.8
2016-Aug-19 06:04N 55°44' E 006°24'4 7.9
2016-Aug-19 05:33N 55°41' E 006°20'113 7.5
2016-Aug-18 14:31N 54°04' E 004°39'32 4.5
2016-Aug-18 07:30N 53°39' E 004°06'5 5.4
2016-Aug-18 06:32N 53°36' E 003°59'8 7.3
2016-Aug-18 05:25N 53°31' E 003°48'24 8.4
2016-Aug-18 02:32N 53°09' E 003°29'9 8.8
2016-Aug-18 01:33N 53°01' E 003°24'9 8.5
2016-Aug-18 00:33N 52°53' E 003°19'8 7.9
2016-Aug-17 23:33N 52°46' E 003°13'7 7.2
2016-Aug-17 22:33N 52°40' E 003°08'7 6.5
2016-Aug-17 21:33N 52°34' E 003°03'6 6.0
2016-Aug-17 20:33N 52°29' E 002°59'4 4.0
2016-Aug-17 19:33N 52°25' E 002°56'3 3.3
2016-Aug-17 18:33N 52°22' E 002°53'4 4.1
2016-Aug-17 17:32N 52°19' E 002°50'5 5.2
2016-Aug-17 16:33N 52°14' E 002°46'6 6.3
2016-Aug-17 15:33N 52°08' E 002°42'3 0.5
2016-Aug-17 09:28N 52°06' E 002°46'0 0.0
2016-Aug-17 08:31N 52°06' E 002°46'0 0.0
2016-Aug-17 07:31N 52°06' E 002°46'0 0.0
2016-Aug-16 20:19N 52°06' E 002°46'0 0.0
2016-Aug-16 17:04N 52°06' E 002°46'  
Track history (hours):
 
Tides and Currents Weather Stations Pressure Air Temp Water Temp Dewpoint Dewpoint Depression Visibility Wind Speed Wind Dir Waves Ship Positions

Pelagos

Last reported at 2016-Aug-25 20:31 UTC. Time now 2016-Aug-26 19:58 UTC.
Position N 60°20' E 028°43'.

Length 249 m; draft 7.5 m.

Type: Ship. MMSI: 240335000.

Date/timePositionNaut miles runAvg speedWind from/ knotsBaromVisibWave heightAir tempDewpointWater temp
2016-Aug-25 20:31N 60°20' E 028°43'6 5.7
2016-Aug-25 19:33N 60°15' E 028°48'8 8.0
2016-Aug-25 18:33N 60°09' E 028°38'6 6.1
2016-Aug-25 17:33N 60°06' E 028°27'5 4.6
2016-Aug-25 16:33N 60°06' E 028°18'6 5.6
2016-Aug-25 15:33N 60°08' E 028°07'5 4.7
2016-Aug-25 14:33N 60°09' E 027°58'6 5.5
2016-Aug-25 13:33N 60°11' E 027°47'5 4.8
2016-Aug-25 12:33N 60°08' E 027°39'6 6.1
2016-Aug-25 11:33N 60°05' E 027°28'6 6.2
2016-Aug-25 10:33N 60°02' E 027°18'6 5.9
2016-Aug-25 09:32N 59°59' E 027°08'5 5.6
2016-Aug-25 08:33N 59°58' E 026°57'6 5.9
2016-Aug-25 07:33N 59°59' E 026°45'8 7.8
2016-Aug-25 06:34N 59°58' E 026°30'21 8.6
2016-Aug-25 04:06N 59°52' E 025°49'24 8.6
2016-Aug-25 01:18N 59°47' E 025°03'7 8.3
2016-Aug-25 00:26N 59°46' E 024°48'9 8.3
2016-Aug-24 23:21N 59°44' E 024°31'7 8.3
2016-Aug-24 22:32N 59°42' E 024°18'8 8.1
2016-Aug-24 21:33N 59°40' E 024°03'8 8.1
2016-Aug-24 20:33N 59°37' E 023°48'8 8.2
2016-Aug-24 19:33N 59°35' E 023°32'9 8.7
2016-Aug-24 18:33N 59°32' E 023°16'9 8.6
2016-Aug-24 17:33N 59°29' E 023°00'9 9.3
2016-Aug-24 16:33N 59°26' E 022°43'8 8.4
2016-Aug-24 15:33N 59°22' E 022°28'9 8.1
2016-Aug-24 14:29N 59°17' E 022°15'208 5.9
2016-Aug-23 03:32N 56°20' E 018°51'8 8.0
2016-Aug-23 02:33N 56°15' E 018°40'9 8.3
2016-Aug-23 01:26N 56°10' E 018°25'99 6.9
2016-Aug-22 11:06N 55°37' E 015°38'4 6.3
2016-Aug-22 10:32N 55°36' E 015°32'6 6.2
2016-Aug-22 09:33N 55°34' E 015°21'6 6.0
2016-Aug-22 08:30N 55°32' E 015°11'5 5.8
2016-Aug-22 07:33N 55°29' E 015°03'6 5.8
2016-Aug-22 06:33N 55°26' E 014°54'6 5.8
2016-Aug-22 05:33N 55°24' E 014°44'6 5.8
2016-Aug-22 04:33N 55°21' E 014°36'6 5.7
2016-Aug-22 03:33N 55°17' E 014°28'6 5.6
2016-Aug-22 02:33N 55°13' E 014°22'6 5.6
2016-Aug-22 01:33N 55°09' E 014°14'6 6.0
2016-Aug-22 00:33N 55°10' E 014°04'6 6.1
2016-Aug-21 23:33N 55°11' E 013°53'6 6.1
2016-Aug-21 22:33N 55°11' E 013°43'6 6.1
2016-Aug-21 21:33N 55°12' E 013°32'6 5.9
2016-Aug-21 20:33N 55°12' E 013°22'6 5.9
2016-Aug-21 19:33N 55°13' E 013°12'6 5.9
2016-Aug-21 18:33N 55°14' E 013°01'5 5.4
2016-Aug-21 17:33N 55°15' E 012°52'5 5.4
2016-Aug-21 16:33N 55°17' E 012°43'4 4.1
2016-Aug-21 15:34N 55°20' E 012°38'6 5.5
2016-Aug-21 14:33N 55°25' E 012°40'8 8.0
2016-Aug-21 13:33N 55°32' E 012°46'9 9.2
2016-Aug-21 12:33N 55°40' E 012°56'1413.7
2016-Aug-21 11:33N 55°52' E 012°44'1312.7
2016-Aug-21 10:33N 56°04' E 012°37'8 7.7
2016-Aug-21 09:33N 56°09' E 012°26'6 6.5
2016-Aug-21 08:33N 56°13' E 012°17'8 7.8
2016-Aug-21 07:33N 56°17' E 012°05'7 6.7
2016-Aug-21 06:32N 56°23' E 011°60'5 5.1
2016-Aug-21 05:33N 56°28' E 011°56'2 1.7
2016-Aug-21 04:31N 56°26' E 011°57'3 3.0
2016-Aug-21 03:33N 56°29' E 011°59'6 5.6
2016-Aug-21 02:33N 56°34' E 011°56'5 5.4
2016-Aug-21 01:32N 56°40' E 011°55'5 4.8
2016-Aug-21 00:33N 56°44' E 011°53'5 5.2
2016-Aug-20 23:33N 56°49' E 011°50'5 4.9
2016-Aug-20 22:33N 56°54' E 011°47'5 4.9
2016-Aug-20 21:32N 56°59' E 011°44'7 7.1
2016-Aug-20 20:33N 57°05' E 011°39'8 7.9
2016-Aug-20 19:33N 57°12' E 011°34'7 7.5
2016-Aug-20 18:33N 57°19' E 011°29'7 7.1
2016-Aug-20 17:33N 57°26' E 011°24'6 6.1
2016-Aug-20 16:33N 57°30' E 011°16'6 6.3
2016-Aug-20 15:33N 57°35' E 011°09'6 6.4
2016-Aug-20 14:33N 57°40' E 010°60'6 6.5
2016-Aug-20 13:33N 57°44' E 010°51'6 6.2
2016-Aug-20 12:33N 57°47' E 010°41'10 7.4
2016-Aug-20 11:12N 57°45' E 010°23'13 4.8
2016-Aug-20 08:31N 57°41' E 009°60'5 5.6
2016-Aug-20 07:33N 57°39' E 009°50'5 5.5
2016-Aug-20 06:33N 57°37' E 009°41'7 6.8
2016-Aug-20 05:33N 57°34' E 009°29'8 8.2
2016-Aug-20 04:33N 57°30' E 009°16'69 7.6
2016-Aug-19 19:32N 56°45' E 007°41'5 5.1
2016-Aug-19 18:32N 56°41' E 007°35'6 5.1
2016-Aug-19 17:25N 56°36' E 007°29'27 5.6
2016-Aug-19 12:30N 56°13' E 007°02'7 5.4
2016-Aug-19 11:09N 56°07' E 006°54'21 5.5
2016-Aug-19 07:21N 55°50' E 006°32'7 5.8
2016-Aug-19 06:04N 55°44' E 006°24'4 7.9
2016-Aug-19 05:33N 55°41' E 006°20'113 7.5
2016-Aug-18 14:31N 54°04' E 004°39'32 4.5
2016-Aug-18 07:30N 53°39' E 004°06'5 5.4
2016-Aug-18 06:32N 53°36' E 003°59'8 7.3
2016-Aug-18 05:25N 53°31' E 003°48'24 8.4
2016-Aug-18 02:32N 53°09' E 003°29'9 8.8
2016-Aug-18 01:33N 53°01' E 003°24'9 8.5
2016-Aug-18 00:33N 52°53' E 003°19'8 7.9
2016-Aug-17 23:33N 52°46' E 003°13'7 7.2
2016-Aug-17 22:33N 52°40' E 003°08'7 6.5
2016-Aug-17 21:33N 52°34' E 003°03'6 6.0
2016-Aug-17 20:33N 52°29' E 002°59'4 4.0
2016-Aug-17 19:33N 52°25' E 002°56'3 3.3
2016-Aug-17 18:33N 52°22' E 002°53'4 4.1
2016-Aug-17 17:32N 52°19' E 002°50'5 5.2
2016-Aug-17 16:33N 52°14' E 002°46'6 6.3
2016-Aug-17 15:33N 52°08' E 002°42'3 0.5
2016-Aug-17 09:28N 52°06' E 002°46'0 0.0
2016-Aug-17 08:31N 52°06' E 002°46'0 0.0
2016-Aug-17 07:31N 52°06' E 002°46'0 0.0
2016-Aug-16 20:19N 52°06' E 002°46'0 0.0
2016-Aug-16 17:04N 52°06' E 002°46'  

Dump ship's entire track history